Time;durP1;ratioP1;P1;durP2;ratioP2;P2;SDS_P1;SDS_P2;PMS_P1;PMS_P2;Temp;Humidity;BMP_temperature;BMP_pressure;BME280_temperature;BME280_humidity;BME280_pressure;Samples;Min_cycle;Max_cycle;Signal;HPM_P1;HPM_P2
2022/03/27 00:00:05;;;;;;;17.40;9.00;;;13.20;50.70;;;11.95;41.59;100990.91;10259453;28;96416;-80
2022/03/27 00:05:13;;;;;;;18.77;8.80;;;13.20;50.80;;;11.94;41.82;100991.06;10246225;28;96790;-81
2022/03/27 00:10:16;;;;;;;14.90;8.60;;;13.10;50.80;;;11.85;41.62;101000.81;10249993;28;96603;-81
2022/03/27 00:15:19;;;;;;;16.80;8.53;;;13.10;50.70;;;11.66;41.90;101001.81;10238780;28;96613;-81
2022/03/27 00:20:22;;;;;;;14.53;7.77;;;13.00;50.80;;;11.41;42.50;101000.81;10275482;28;96523;-80
2022/03/27 00:25:25;;;;;;;12.27;8.17;;;12.80;50.90;;;11.15;42.99;101008.69;10257915;28;97126;-80
2022/03/27 00:30:28;;;;;;;15.73;8.20;;;12.60;51.20;;;10.96;43.31;101011.50;10249667;28;96649;-80
2022/03/27 00:35:31;;;;;;;13.33;7.63;;;12.40;51.40;;;10.76;43.96;101018.78;10247911;28;96600;-80
2022/03/27 00:40:34;;;;;;;14.20;7.60;;;12.20;51.90;;;10.57;44.83;101010.91;10242831;28;98307;-79
2022/03/27 00:45:37;;;;;;;16.87;7.63;;;12.00;52.10;;;10.44;44.69;101017.41;10264226;28;96551;-81
2022/03/27 00:50:42;;;;;;;14.60;6.93;;;11.90;52.00;;;10.24;44.90;101021.13;10253192;28;96640;-80
2022/03/27 00:55:45;;;;;;;15.93;7.50;;;11.70;52.40;;;10.00;45.70;101018.94;10235961;28;97405;-81
2022/03/27 01:00:48;;;;;;;17.17;7.47;;;11.60;52.60;;;9.89;45.70;101027.88;10235223;28;96593;-81
2022/03/27 01:05:54;;;;;;;16.50;7.23;;;11.40;53.10;;;9.72;46.02;101028.66;10286541;28;96572;-80
2022/03/27 01:10:57;;;;;;;18.20;7.97;;;11.20;53.50;;;9.53;46.67;101023.34;10250584;28;96745;-80
2022/03/27 01:15:59;;;;;;;17.73;8.30;;;11.00;54.00;;;9.48;47.30;101028.25;10236539;28;96630;-80
2022/03/27 01:21:02;;;;;;;18.50;9.40;;;11.00;54.50;;;9.48;47.29;101028.25;10279490;28;96581;-81
2022/03/27 01:26:05;;;;;;;22.03;9.33;;;10.90;54.70;;;9.45;47.30;101034.66;10240493;28;96735;-81
2022/03/27 01:31:08;;;;;;;15.23;7.97;;;10.90;55.10;;;9.38;47.36;101039.69;10289792;28;96904;-81
2022/03/27 01:36:11;;;;;;;18.00;8.33;;;10.80;55.00;;;9.29;47.52;101040.50;10308900;28;96908;-80
2022/03/27 01:41:14;;;;;;;17.90;8.50;;;10.70;54.80;;;9.24;47.97;101053.38;10296807;28;96678;-81
2022/03/27 01:46:18;;;;;;;16.93;8.90;;;10.60;55.00;;;9.19;47.87;101054.75;10319551;28;98218;-81
2022/03/27 01:51:21;;;;;;;16.73;8.30;;;10.60;55.20;;;9.07;47.92;101056.69;10309997;28;96795;-80
2022/03/27 01:56:24;;;;;;;15.03;8.70;;;10.50;55.10;;;8.92;48.32;101063.34;10296464;28;96871;-81
2022/03/27 02:01:27;;;;;;;17.63;9.40;;;10.40;55.30;;;8.72;48.96;101065.97;10307730;28;98282;-80
2022/03/27 02:06:32;;;;;;;17.67;9.10;;;10.30;55.30;;;8.54;49.68;101062.28;10337909;28;96589;-80
2022/03/27 02:11:35;;;;;;;19.67;9.23;;;10.10;55.60;;;8.40;50.48;101073.22;10283222;28;98023;-80
2022/03/27 02:16:39;;;;;;;26.60;11.03;;;10.00;56.10;;;8.32;50.88;101071.19;10313140;28;96554;-80
2022/03/27 02:21:42;;;;;;;30.77;11.73;;;9.90;56.80;;;8.24;51.06;101079.81;10293893;28;96487;-80
2022/03/27 02:26:47;;;;;;;19.87;9.20;;;9.80;56.90;;;8.18;51.86;101082.13;10312604;28;96611;-80
2022/03/27 02:31:50;;;;;;;16.23;8.50;;;9.70;58.00;;;8.07;51.97;101077.75;10295161;28;96668;-79
2022/03/27 02:36:53;;;;;;;19.97;8.83;;;9.60;57.80;;;8.08;52.86;101084.72;10321814;28;96546;-80
2022/03/27 02:41:56;;;;;;;14.17;7.17;;;9.60;58.30;;;8.15;53.19;101085.03;10330509;28;96528;-80
2022/03/27 02:46:59;;;;;;;17.17;8.27;;;9.70;58.90;;;8.21;53.69;101095.94;10328095;28;96602;-79
2022/03/27 02:52:03;;;;;;;18.10;8.63;;;9.70;58.40;;;8.18;53.55;101101.50;10341959;28;96597;-79
2022/03/27 02:57:06;;;;;;;23.20;11.73;;;9.70;58.70;;;8.09;53.31;101109.38;10334025;28;96819;-79
2022/03/27 03:02:09;;;;;;;23.80;11.17;;;9.60;58.90;;;7.95;53.74;101106.09;10312473;28;97027;-79
2022/03/27 03:07:14;;;;;;;17.57;8.17;;;9.50;59.40;;;7.81;54.49;101106.41;10333691;28;96575;-80
2022/03/27 03:12:18;;;;;;;14.40;7.37;;;9.40;59.90;;;7.68;55.20;101117.19;10315852;28;96570;-80
2022/03/27 03:17:22;;;;;;;15.40;7.67;;;9.30;60.70;;;7.66;56.61;101115.63;10296456;28;96625;-80
2022/03/27 03:22:26;;;;;;;14.77;8.33;;;9.20;60.30;;;7.62;56.49;101124.78;10279703;28;96554;-79
2022/03/27 03:27:30;;;;;;;18.17;9.00;;;9.20;61.80;;;7.55;56.72;101128.88;10311408;28;97588;-80
2022/03/27 03:32:36;;;;;;;22.20;8.80;;;9.10;62.10;;;7.39;57.25;101124.84;10310118;28;96885;-80
2022/03/27 03:37:39;;;;;;;16.90;8.50;;;9.00;62.40;;;7.29;57.66;101133.66;10307893;28;96561;-80
2022/03/27 03:42:42;;;;;;;17.00;8.63;;;8.90;62.50;;;7.16;57.89;101149.66;10310210;28;96848;-80
2022/03/27 03:47:45;;;;;;;15.17;8.57;;;8.80;63.20;;;7.04;58.81;101161.22;10280672;28;96529;-80
2022/03/27 03:52:48;;;;;;;15.70;9.00;;;8.70;64.90;;;6.95;58.36;101160.13;10293461;28;96418;-80
2022/03/27 03:57:51;;;;;;;21.23;9.83;;;8.50;65.20;;;6.84;57.96;101165.44;10303663;28;96512;-80
2022/03/27 04:02:54;;;;;;;14.07;7.67;;;8.40;64.60;;;6.67;58.42;101167.59;10315328;28;96578;-80
2022/03/27 04:07:57;;;;;;;15.00;8.37;;;8.30;64.40;;;6.56;58.95;101186.06;10333802;28;96694;-80
2022/03/27 04:13:00;;;;;;;14.13;6.53;;;8.20;64.20;;;6.40;59.33;101196.09;10296256;28;96876;-80
2022/03/27 04:18:03;;;;;;;19.77;9.03;;;8.10;65.40;;;6.24;59.53;101201.72;10325157;28;96828;-80
2022/03/27 04:23:06;;;;;;;13.10;6.70;;;7.90;65.70;;;6.10;59.95;101202.72;10281641;28;96641;-80
2022/03/27 04:28:10;;;;;;;22.60;10.27;;;7.80;66.60;;;5.99;60.92;101221.16;10291369;28;96725;-80
2022/03/27 04:33:13;;;;;;;17.77;9.00;;;7.70;67.20;;;5.90;61.40;101233.19;10266814;28;96611;-81
2022/03/27 04:38:17;;;;;;;12.90;7.30;;;7.60;67.40;;;5.81;62.06;101238.28;10291061;28;96781;-81
2022/03/27 04:43:22;;;;;;;19.57;8.97;;;7.50;68.80;;;5.73;62.52;101245.94;10264979;28;97677;-80
2022/03/27 04:48:25;;;;;;;17.20;9.73;;;7.40;70.50;;;5.64;62.81;101256.19;10236559;28;96562;-81
2022/03/27 04:53:29;;;;;;;25.73;12.90;;;7.30;70.50;;;5.62;63.71;101258.09;10246425;28;96721;-81
2022/03/27 04:58:32;;;;;;;17.43;8.40;;;7.20;71.80;;;5.64;63.96;101258.84;10219896;28;96582;-81
2022/03/27 05:03:36;;;;;;;20.67;9.17;;;7.20;72.60;;;5.73;65.02;101261.75;10257763;28;96571;-81
2022/03/27 05:08:39;;;;;;;17.53;8.53;;;7.30;73.60;;;5.92;64.83;101282.41;10256087;28;96555;-81
2022/03/27 05:13:41;;;;;;;18.70;9.03;;;7.40;75.20;;;6.08;65.09;101265.34;10250478;28;96716;-81
2022/03/27 05:18:44;;;;;;;20.03;8.63;;;7.50;76.60;;;6.29;65.02;101260.25;10255524;28;98263;-80
2022/03/27 05:23:47;;;;;;;17.77;9.03;;;7.60;78.10;;;6.53;64.80;101265.50;10263278;28;96561;-80
2022/03/27 05:28:50;;;;;;;12.50;6.83;;;7.80;78.30;;;6.73;64.61;101274.56;10242480;28;96808;-80
2022/03/27 05:33:53;;;;;;;18.47;8.90;;;8.10;77.30;;;6.92;64.45;101274.84;10249415;28;97209;-80
2022/03/27 05:38:56;;;;;;;18.57;9.27;;;8.20;78.40;;;7.09;63.66;101288.56;10248781;28;96826;-80
2022/03/27 05:43:59;;;;;;;15.27;7.60;;;8.40;77.50;;;7.28;63.82;101301.19;10267317;28;96731;-80
2022/03/27 05:49:02;;;;;;;19.93;8.60;;;8.50;79.40;;;7.53;63.02;101305.38;10241666;28;96549;-80
2022/03/27 05:54:05;;;;;;;15.57;8.23;;;8.80;78.20;;;7.79;61.88;101317.38;10255299;28;96610;-80
2022/03/27 05:59:08;;;;;;;16.93;8.33;;;9.00;77.80;;;7.98;60.68;101328.19;10247461;28;97025;-81
2022/03/27 06:04:11;;;;;;;17.50;8.63;;;9.20;77.20;;;8.24;60.27;101323.41;10251922;28;99163;-81
2022/03/27 06:09:14;;;;;;;20.03;9.13;;;9.40;77.30;;;8.45;59.18;101333.25;10243021;28;96454;-80
2022/03/27 06:14:18;;;;;;;21.53;9.87;;;9.60;75.70;;;8.62;58.73;101332.69;10275818;28;97728;-82
2022/03/27 06:19:22;;;;;;;24.30;10.10;;;9.80;75.00;;;8.85;58.12;101342.22;10267737;28;96652;-81
2022/03/27 06:24:25;;;;;;;19.43;10.20;;;10.00;74.10;;;9.15;57.24;101345.88;10227566;28;97256;-79
2022/03/27 06:29:28;;;;;;;19.57;8.13;;;10.30;73.50;;;9.46;56.34;101353.88;10261245;28;96546;-80
2022/03/27 06:34:31;;;;;;;20.27;8.30;;;10.50;73.00;;;9.74;55.37;101365.59;10268559;28;96447;-80
2022/03/27 06:39:34;;;;;;;17.53;7.77;;;10.80;72.00;;;9.98;54.61;101362.59;10267057;28;96596;-79
2022/03/27 06:44:37;;;;;;;12.67;7.87;;;11.00;70.90;;;10.16;53.89;101363.63;10250852;28;96656;-80
2022/03/27 06:49:40;;;;;;;14.43;7.83;;;11.20;69.90;;;10.31;53.08;101375.53;10269886;28;97610;-80
2022/03/27 06:54:46;;;;;;;11.90;7.03;;;11.40;69.00;;;10.46;52.63;101378.66;10260639;28;96551;-80
2022/03/27 07:05:12;;;;;;;15.23;8.47;;;11.70;67.50;;;10.68;51.97;101386.38;10264559;28;96578;-81
2022/03/27 07:10:16;;;;;;;11.47;7.07;;;11.80;67.20;;;10.77;51.92;101384.69;10249229;28;97831;-81
2022/03/27 07:15:19;;;;;;;14.13;7.27;;;11.90;66.90;;;10.95;51.63;101404.28;10262662;28;96627;-81
2022/03/27 07:20:30;;;;;;;14.03;8.57;;;12.00;66.50;;;11.13;51.21;101403.56;10256684;28;96697;-80
2022/03/27 07:25:35;;;;;;;12.25;7.57;;;12.20;66.20;;;11.25;50.63;101405.09;10245174;28;96713;-81
2022/03/27 07:30:40;;;;;;;13.30;7.33;;;12.40;65.50;;;11.34;50.44;101406.91;10268509;28;96639;-81
2022/03/27 07:35:44;;;;;;;12.80;7.30;;;12.50;65.10;;;11.50;50.32;101409.78;10245216;28;96679;-80
2022/03/27 07:40:49;;;;;;;11.63;6.03;;;12.60;64.90;;;11.65;49.82;101412.00;10273272;28;97073;-81
2022/03/27 07:45:52;;;;;;;11.03;7.33;;;12.80;64.40;;;11.82;49.26;101408.59;10270670;28;97192;-80
2022/03/27 07:50:56;;;;;;;10.50;6.93;;;12.90;64.00;;;12.04;49.13;101399.38;10255334;28;96555;-80
2022/03/27 07:55:59;;;;;;;11.50;6.13;;;13.20;63.60;;;12.33;48.95;101417.88;10233682;28;96608;-80
2022/03/27 08:01:03;;;;;;;11.63;6.27;;;13.50;63.40;;;12.89;47.67;101400.75;10265264;28;97520;-79
2022/03/27 08:06:07;;;;;;;11.73;6.93;;;13.90;62.10;;;13.54;45.73;101411.09;10259652;28;97177;-80
2022/03/27 08:11:10;;;;;;;10.23;6.00;;;14.40;61.20;;;14.04;44.19;101407.72;10254081;28;97607;-81
2022/03/27 08:16:13;;;;;;;10.52;6.05;;;14.90;59.10;;;14.57;43.82;101407.38;10250666;28;96885;-80
2022/03/27 08:21:16;;;;;;;9.30;6.50;;;15.40;59.30;;;15.30;42.06;101397.72;10236734;28;98168;-79
2022/03/27 08:31:40;;;;;;;9.15;5.65;;;16.50;57.20;;;16.77;39.25;101388.03;10268387;28;96733;-80
2022/03/27 08:36:47;;;;;;;7.55;5.63;;;17.10;56.10;;;17.05;38.29;101391.00;10249406;28;96799;-80
2022/03/27 08:41:54;;;;;;;11.23;5.78;;;17.50;54.60;;;17.38;37.61;101390.69;10245696;28;98151;-80
2022/03/27 08:46:58;;;;;;;8.98;6.05;;;17.80;53.50;;;17.83;36.76;101387.03;10238972;28;96938;-80
2022/03/27 08:52:40;;;;;;;10.27;6.28;;;18.30;52.60;;;18.19;35.32;101397.00;10249824;28;98306;-81
2022/03/27 08:57:58;;;;;;;11.15;6.15;;;18.60;49.90;;;18.51;35.41;101392.19;10256512;28;98215;-80
2022/03/27 09:03:03;;;;;;;8.70;5.60;;;18.80;50.60;;;18.57;34.80;101396.81;10248643;28;96708;-80
2022/03/27 09:08:15;;;;;;;10.07;5.90;;;18.90;50.10;;;18.33;35.07;101398.81;10519780;27;96667;-79
2022/03/27 09:13:19;;;;;;;9.80;6.47;;;19.10;48.40;;;18.53;35.21;101392.81;10455554;27;96882;-80
2022/03/27 09:18:22;;;;;;;9.57;5.35;;;19.10;49.60;;;18.89;34.22;101393.66;10451489;27;96835;-79
2022/03/27 09:23:30;;;;;;;9.73;5.80;;;19.20;48.70;;;18.86;33.85;101385.94;10488981;27;96566;-79
2022/03/27 09:28:44;;;;;;;8.35;5.93;;;19.20;48.70;;;18.65;34.25;101370.59;10489374;27;96714;-79
2022/03/27 09:34:00;;;;;;;9.68;6.35;;;19.20;48.60;;;18.74;33.91;101376.72;10451079;27;96712;-80
2022/03/27 09:39:29;;;;;;;18.98;6.50;;;19.20;47.70;;;19.01;34.22;101372.38;10404199;27;96509;-80
2022/03/27 09:44:36;;;;;;;10.60;5.60;;;19.50;47.90;;;19.51;33.08;101363.22;10442880;27;96651;-80
2022/03/27 09:49:46;;;;;;;8.63;6.03;;;19.90;47.70;;;20.05;32.33;101365.19;10459296;27;96591;-81
2022/03/27 09:55:07;;;;;;;10.50;6.30;;;20.40;47.00;;;20.53;31.15;101354.34;10413056;27;98416;-80
2022/03/27 10:00:18;;;;;;;8.45;6.03;;;20.90;46.00;;;20.74;31.14;101357.88;10427843;27;97458;-80
2022/03/27 10:05:21;;;;;;;8.70;6.45;;;21.20;46.10;;;21.27;30.70;101355.16;10480153;27;96773;-80
2022/03/27 10:10:26;;;;;;;7.70;5.45;;;21.70;46.00;;;21.71;29.79;101349.06;10435557;27;96646;-81
2022/03/27 10:15:30;;;;;;;9.15;6.55;;;22.10;44.00;;;21.22;30.02;101363.91;10462500;27;98294;-80
2022/03/27 10:20:38;;;;;;;7.10;5.88;;;21.90;43.60;;;21.26;30.74;101348.09;10445275;27;96595;-79
2022/03/27 10:25:45;;;;;;;9.73;6.35;;;22.00;44.20;;;21.52;29.55;101355.34;10439938;27;96733;-80
2022/03/27 10:30:52;;;;;;;8.57;6.22;;;22.20;43.30;;;21.62;29.32;101358.44;10435553;27;96554;-80
2022/03/27 10:36:05;;;;;;;8.68;6.25;;;22.40;43.30;;;21.78;29.29;101346.34;10408902;27;97158;-80
2022/03/27 10:42:02;;;;;;;12.48;6.70;;;22.50;42.50;;;21.94;28.45;101355.84;10451174;27;96532;-80
2022/03/27 10:47:28;;;;;;;8.73;5.95;;;22.70;41.50;;;22.16;28.24;101339.09;10391565;27;97496;-82
2022/03/27 10:52:57;;;;;;;9.07;6.50;;;22.90;41.80;;;22.32;28.00;101336.94;10421593;27;96742;-84
2022/03/27 10:58:00;;;;;;;6.95;4.90;;;23.00;40.50;;;22.58;27.89;101334.06;10393647;27;96821;-82
2022/03/27 11:03:03;;;;;;;9.68;6.38;;;23.20;41.40;;;22.62;27.05;101335.28;10400029;27;96535;-83
2022/03/27 11:08:18;;;;;;;10.48;6.30;;;23.40;40.90;;;22.60;27.23;101331.94;10402203;27;96788;-85
2022/03/27 11:13:28;;;;;;;9.68;6.25;;;23.50;40.40;;;22.77;26.89;101309.72;10410663;27;96520;-84
2022/03/27 11:18:41;;;;;;;7.70;6.03;;;23.60;40.40;;;23.16;27.11;101314.81;10405879;27;97911;-85
2022/03/27 11:23:44;;;;;;;7.70;6.25;;;23.90;40.50;;;23.36;25.98;101301.03;10397997;27;97031;-85
2022/03/27 11:28:55;;;;;;;10.20;6.45;;;24.20;39.50;;;23.06;25.91;101295.53;10434117;27;96772;-84
2022/03/27 11:34:17;;;;;;;7.03;6.05;;;24.10;39.20;;;23.06;26.08;101298.22;10411165;27;96920;-87
2022/03/27 11:39:29;;;;;;;8.13;5.93;;;24.10;38.40;;;23.25;25.73;101285.53;10401460;27;98118;-83
2022/03/27 11:49:54;;;;;;;11.52;6.65;;;24.20;38.70;;;22.96;26.35;101276.22;10414987;27;96679;-81
2022/03/27 11:55:10;;;;;;;7.35;5.82;;;24.10;38.80;;;23.17;25.88;101264.97;10457577;27;96605;-82
2022/03/27 12:00:16;;;;;;;8.23;5.82;;;24.30;38.60;;;23.39;25.38;101261.78;10427183;28;97158;-82
2022/03/27 12:05:18;;;;;;;6.68;5.35;;;24.50;38.20;;;23.57;25.25;101261.78;10450918;27;96737;-81
2022/03/27 12:10:23;;;;;;;7.32;5.38;;;24.60;38.20;;;23.79;25.10;101251.28;10436312;27;96732;-82
2022/03/27 12:15:49;;;;;;;8.82;5.53;;;24.90;37.70;;;23.61;24.26;101252.13;10446163;27;96535;-82
2022/03/27 12:20:53;;;;;;;9.35;6.57;;;24.80;37.00;;;23.33;24.81;101243.69;10392733;28;96598;-83
2022/03/27 12:31:28;;;;;;;8.02;5.55;;;24.50;36.90;;;23.18;24.99;101239.50;10437887;28;96612;-83
2022/03/27 12:36:31;;;;;;;8.15;4.97;;;24.50;37.10;;;23.29;25.17;101237.09;10413830;27;96537;-82
2022/03/27 12:41:39;;;;;;;7.43;4.90;;;24.70;36.90;;;23.38;25.12;101231.13;10442462;27;97831;-82
2022/03/27 12:46:50;;;;;;;7.75;5.55;;;24.80;37.10;;;23.42;24.55;101226.09;10418004;28;96640;-82
2022/03/27 12:51:57;;;;;;;9.23;5.93;;;25.00;36.50;;;23.33;24.37;101227.44;10423781;27;96957;-81
2022/03/27 12:56:59;;;;;;;8.32;5.53;;;24.80;36.20;;;22.99;25.18;101224.28;10447081;27;96500;-82
2022/03/27 13:02:30;;;;;;;8.13;5.07;;;24.50;36.70;;;22.95;25.10;101221.19;10438835;27;96500;-82
2022/03/27 13:07:57;;;;;;;7.10;5.30;;;24.50;36.70;;;22.99;25.01;101208.03;10405917;28;96629;-82
2022/03/27 13:13:07;;;;;;;6.85;5.05;;;24.50;36.40;;;22.76;24.92;101205.09;10453552;27;97399;-80
2022/03/27 13:18:26;;;;;;;8.18;5.65;;;24.40;36.50;;;22.36;25.63;101206.28;10429476;27;96649;-82
2022/03/27 13:23:29;;;;;;;9.52;5.53;;;24.10;36.70;;;22.11;25.83;101198.16;10404886;28;96525;-82
2022/03/27 13:28:32;;;;;;;7.97;5.80;;;23.80;36.90;;;22.09;26.01;101194.84;10453331;27;96665;-82
2022/03/27 13:33:35;;;;;;;7.57;4.82;;;23.80;37.20;;;22.25;25.96;101192.63;10411477;28;97109;-82
2022/03/27 13:38:38;;;;;;;12.07;6.07;;;24.00;37.20;;;22.50;25.71;101185.34;10403674;28;97020;-82
2022/03/27 13:43:42;;;;;;;14.23;6.43;;;24.10;36.90;;;22.47;25.34;101183.06;10406205;28;96726;-83
2022/03/27 13:48:46;;;;;;;7.35;4.85;;;24.10;36.70;;;22.42;25.73;101174.78;10405427;27;96597;-82
2022/03/27 13:53:49;;;;;;;9.35;5.63;;;24.10;36.70;;;22.44;25.34;101170.81;10443053;27;96428;-82
2022/03/27 13:58:52;;;;;;;11.90;6.97;;;24.20;36.40;;;22.37;25.18;101167.34;10427153;27;98323;-81
2022/03/27 14:03:55;;;;;;;9.25;5.63;;;24.20;36.30;;;22.22;25.13;101160.59;10380400;28;97046;-81
2022/03/27 14:08:58;;;;;;;8.38;5.30;;;23.90;36.40;;;21.97;25.37;101168.69;10399837;27;96715;-81
2022/03/27 14:14:02;;;;;;;8.07;5.90;;;23.70;36.50;;;21.90;26.15;101155.22;10435955;27;97145;-80
2022/03/27 14:19:06;;;;;;;7.90;5.20;;;23.50;36.90;;;21.88;25.87;101149.16;10434985;27;97404;-79
2022/03/27 14:24:09;;;;;;;8.15;5.13;;;23.50;37.00;;;21.91;25.63;101143.34;10406145;28;96643;-80
2022/03/27 14:29:13;;;;;;;10.52;5.47;;;23.60;37.00;;;21.96;25.79;101142.69;10425900;27;96672;-83
2022/03/27 14:34:16;;;;;;;7.90;5.28;;;23.60;36.90;;;22.16;25.81;101129.84;10423340;28;96574;-80
2022/03/27 14:39:20;;;;;;;9.70;5.57;;;23.70;36.90;;;22.04;25.41;101137.81;10426904;27;96532;-81
2022/03/27 14:44:23;;;;;;;7.72;5.28;;;23.70;36.70;;;22.02;25.94;101123.69;10411150;27;96828;-80
2022/03/27 14:49:26;;;;;;;11.23;5.65;;;23.60;36.80;;;22.07;25.75;101118.44;10411572;28;96650;-79
2022/03/27 14:59:50;;;;;;;6.57;4.72;;;23.80;36.50;;;22.34;25.62;101118.22;10426461;27;96980;-83
2022/03/27 15:04:53;;;;;;;8.40;5.65;;;23.80;36.50;;;22.27;25.03;101115.56;10409265;27;96879;-82
2022/03/27 15:09:56;;;;;;;7.00;5.20;;;23.80;36.30;;;22.08;25.24;101113.84;10423912;27;96579;-82
2022/03/27 15:14:59;;;;;;;10.90;5.50;;;23.60;36.50;;;21.84;25.47;101123.63;10422404;27;96902;-83
2022/03/27 15:20:06;;;;;;;8.98;5.55;;;23.40;36.50;;;21.70;25.98;101116.63;10409452;28;96638;-81
2022/03/27 15:25:10;;;;;;;8.55;5.32;;;23.10;36.80;;;21.63;26.04;101122.09;10448965;27;98170;-81
2022/03/27 15:30:15;;;;;;;8.40;5.43;;;23.00;36.90;;;21.45;25.82;101114.72;10415832;28;97394;-81
2022/03/27 15:35:20;;;;;;;8.30;4.60;;;22.80;37.00;;;21.54;25.85;101120.72;10426180;27;97499;-81
2022/03/27 15:40:23;;;;;;;12.82;6.82;;;22.90;37.10;;;21.46;25.51;101120.94;10420306;27;96849;-80
2022/03/27 15:45:27;;;;;;;6.90;4.68;;;22.80;37.00;;;20.88;26.76;101119.13;10422810;27;97713;-81
2022/03/27 15:50:32;;;;;;;10.65;5.93;;;22.30;37.40;;;20.59;27.00;101120.44;10432003;27;96523;-82
2022/03/27 15:55:35;;;;;;;18.77;12.40;;;22.00;37.80;;;20.19;27.20;101125.03;10420789;28;97225;-81
2022/03/27 16:00:43;;;;;;;8.20;6.13;;;21.60;38.10;;;19.82;27.85;101135.41;10424348;28;96787;-80
2022/03/27 16:05:47;;;;;;;9.23;5.72;;;21.30;38.60;;;19.40;28.47;101128.44;10428635;27;96544;-80
2022/03/27 16:10:51;;;;;;;8.52;5.60;;;20.90;38.90;;;18.79;28.95;101137.31;10409085;28;96642;-80
2022/03/27 16:15:57;;;;;;;10.43;5.43;;;20.30;39.50;;;18.18;29.81;101145.16;10425809;27;96632;-81
2022/03/27 16:21:01;;;;;;;8.10;5.68;;;19.70;40.00;;;17.66;30.94;101162.44;10408770;28;97253;-81
2022/03/27 16:26:07;;;;;;;11.65;6.15;;;19.20;40.60;;;17.16;31.80;101152.56;10435795;27;96709;-82
2022/03/27 16:31:14;;;;;;;11.63;5.72;;;18.60;41.30;;;16.71;32.17;101157.13;10416190;28;96851;-83
2022/03/27 16:36:17;;;;;;;12.13;5.50;;;18.20;42.00;;;16.25;33.47;101163.41;10410903;28;96944;-83
2022/03/27 16:41:20;;;;;;;9.20;6.00;;;17.80;42.40;;;15.83;34.28;101163.91;10427149;27;96525;-82
2022/03/27 16:46:23;;;;;;;19.13;8.15;;;17.40;43.30;;;15.44;35.15;101170.16;10404997;28;97948;-81
2022/03/27 16:51:26;;;;;;;12.50;7.25;;;17.00;43.50;;;15.03;35.99;101172.19;10404390;28;96903;-82
2022/03/27 16:56:29;;;;;;;45.90;24.90;;;16.60;44.00;;;14.67;36.31;101172.63;10403927;28;96589;-82
2022/03/27 17:01:32;;;;;;;17.35;8.77;;;16.30;44.50;;;14.32;37.46;101170.31;10415637;27;96690;-80
2022/03/27 17:06:35;;;;;;;23.55;6.88;;;15.90;45.00;;;13.96;38.03;101165.31;10427937;27;96927;-80
2022/03/27 17:11:39;;;;;;;9.90;5.80;;;15.60;45.30;;;13.68;37.89;101169.31;10432173;27;96542;-80
2022/03/27 17:16:42;;;;;;;12.87;5.03;;;15.30;45.60;;;13.37;38.63;101172.53;10375561;28;98274;-80
2022/03/27 17:21:46;;;;;;;9.67;5.60;;;15.00;46.00;;;13.05;39.39;101174.06;10395916;27;96534;-81
2022/03/27 17:26:49;;;;;;;24.60;11.00;;;14.70;46.50;;;12.78;40.06;101174.28;10391453;27;96494;-80
2022/03/27 17:31:53;;;;;;;14.97;7.00;;;14.40;47.30;;;12.53;40.75;101181.28;10444458;27;96684;-81
2022/03/27 17:36:59;;;;;;;12.03;5.57;;;14.20;47.60;;;12.38;40.96;101182.84;10444671;27;96580;-80
2022/03/27 17:42:06;;;;;;;10.47;4.90;;;14.00;47.60;;;12.25;41.02;101188.59;10409101;28;96476;-80
2022/03/27 17:47:09;;;;;;;7.83;4.37;;;13.80;47.80;;;12.10;40.96;101198.13;10416074;27;96528;-82
2022/03/27 17:52:14;;;;;;;12.07;5.37;;;13.70;48.00;;;11.87;41.31;101193.25;10426411;27;96768;-83
2022/03/27 17:57:17;;;;;;;14.20;6.47;;;13.50;48.50;;;11.62;42.31;101200.13;10414929;27;96721;-82
2022/03/27 18:02:21;;;;;;;10.73;6.20;;;13.30;49.00;;;11.45;40.90;101215.06;10426534;28;96501;-82
2022/03/27 18:07:24;;;;;;;12.03;5.40;;;13.10;48.20;;;11.25;39.40;101206.34;10409628;27;97816;-82
2022/03/27 18:12:27;;;;;;;9.43;4.93;;;12.90;47.90;;;11.04;39.66;101211.09;10423678;27;98263;-82
2022/03/27 18:17:31;;;;;;;7.57;4.30;;;12.70;48.10;;;10.78;39.42;101212.69;10408128;28;96702;-82
2022/03/27 18:22:34;;;;;;;7.87;4.00;;;12.50;48.00;;;10.49;40.22;101221.56;10441769;27;96552;-81
2022/03/27 18:27:37;;;;;;;6.10;3.50;;;12.20;48.20;;;10.21;39.95;101236.53;10428240;27;96588;-82
2022/03/27 18:32:41;;;;;;;6.37;4.43;;;11.90;48.00;;;9.95;40.32;101236.25;10458849;27;98078;-81
2022/03/27 18:37:44;;;;;;;5.20;4.07;;;11.70;48.00;;;9.70;41.08;101240.25;10431427;27;96611;-81
2022/03/27 18:42:48;;;;;;;7.50;4.50;;;11.40;48.80;;;9.44;41.73;101231.97;10427281;28;96945;-80
2022/03/27 18:47:51;;;;;;;9.77;4.70;;;11.20;49.20;;;9.21;41.89;101241.94;10422820;28;98145;-82
2022/03/27 18:52:54;;;;;;;6.20;3.87;;;11.00;49.10;;;8.98;42.96;101243.91;10401021;27;96622;-80
2022/03/27 18:57:57;;;;;;;9.57;5.20;;;10.70;49.90;;;8.79;43.58;101238.53;10419305;27;96618;-81
2022/03/27 19:03:01;;;;;;;9.87;5.17;;;10.50;50.20;;;8.60;43.94;101249.84;10426940;27;96622;-82
2022/03/27 19:08:06;;;;;;;6.77;3.97;;;10.40;50.50;;;8.42;44.00;101254.03;10427185;28;96608;-81
2022/03/27 19:13:09;;;;;;;11.23;5.90;;;10.20;50.70;;;8.26;44.57;101257.09;10410488;27;96635;-81
2022/03/27 19:18:16;;;;;;;11.57;6.50;;;10.00;50.90;;;8.15;44.52;101260.59;10415687;27;96528;-82
2022/03/27 19:23:19;;;;;;;12.47;5.70;;;9.90;50.90;;;8.05;45.05;101259.69;10448553;27;96626;-82
2022/03/27 19:28:23;;;;;;;10.70;5.63;;;9.80;51.30;;;7.93;45.10;101264.19;10451567;27;97082;-82
2022/03/27 19:33:28;;;;;;;14.03;6.83;;;9.60;51.40;;;7.81;45.38;101264.34;10444085;27;96469;-82
2022/03/27 19:38:33;;;;;;;11.60;6.37;;;9.50;51.90;;;7.67;46.08;101265.44;10406790;27;96431;-82
2022/03/27 19:43:36;;;;;;;12.23;6.20;;;9.40;52.20;;;7.55;47.64;101264.63;10449030;27;96665;-82
2022/03/27 19:48:39;;;;;;;13.77;6.10;;;9.30;52.40;;;7.39;48.32;101262.38;10420900;27;96543;-82
2022/03/27 19:53:42;;;;;;;14.40;6.67;;;9.10;54.00;;;7.26;48.55;101266.94;10386226;28;96599;-82
2022/03/27 19:58:45;;;;;;;19.37;8.90;;;9.00;54.40;;;7.14;48.77;101267.91;10389121;27;96505;-82
2022/03/27 20:03:48;;;;;;;15.67;6.80;;;8.80;54.40;;;7.01;49.63;101275.91;10414856;27;96636;-82
2022/03/27 20:08:51;;;;;;;14.67;6.57;;;8.70;55.10;;;6.90;50.01;101281.22;10423963;27;96548;-81
2022/03/27 20:13:55;;;;;;;13.53;6.53;;;8.60;55.60;;;6.82;51.18;101289.69;10406085;27;96620;-83
2022/03/27 20:19:00;;;;;;;53.80;18.30;;;8.50;57.20;;;6.83;50.86;101291.38;10420748;27;97572;-81
2022/03/27 20:24:04;;;;;;;41.63;14.47;;;8.40;56.10;;;6.82;50.84;101299.44;10418803;27;97132;-82
2022/03/27 20:29:07;;;;;;;26.60;11.37;;;8.40;56.40;;;6.74;51.66;101301.81;10418252;27;97659;-81
2022/03/27 20:34:11;;;;;;;42.33;18.87;;;8.40;56.80;;;6.64;51.77;101313.06;10411934;28;97243;-81
2022/03/27 20:39:14;;;;;;;32.87;13.60;;;8.30;56.80;;;6.53;53.07;101323.59;10412033;27;96678;-81
2022/03/27 20:44:18;;;;;;;33.87;15.37;;;8.20;58.00;;;6.42;53.44;101319.13;10441798;27;96554;-83
2022/03/27 20:49:21;;;;;;;25.83;11.80;;;8.10;58.70;;;6.32;54.18;101320.75;10452157;27;96574;-81
2022/03/27 20:54:24;;;;;;;19.80;9.30;;;8.00;58.20;;;6.23;53.96;101318.78;10431271;27;96699;-82
2022/03/27 20:59:29;;;;;;;20.70;9.27;;;7.90;58.60;;;6.12;53.86;101322.22;10463791;27;96458;-81
2022/03/27 21:04:32;;;;;;;18.97;8.83;;;7.80;58.40;;;6.01;54.22;101326.59;10427725;27;98298;-81
2022/03/27 21:09:35;;;;;;;13.07;6.37;;;7.70;58.70;;;5.92;55.57;101321.97;10438388;27;96557;-83
2022/03/27 21:14:39;;;;;;;14.10;6.10;;;7.60;60.20;;;5.79;55.56;101322.81;10446406;27;96541;-82
2022/03/27 21:19:42;;;;;;;13.63;7.13;;;7.50;60.20;;;5.69;55.99;101324.41;10448674;27;96561;-81